createdAt,value
2019-04-23T00:00:03.720Z,32.14
2019-04-23T00:02:35.732Z,32.17
2019-04-23T00:05:27.144Z,32.43
2019-04-23T00:10:28.616Z,32.32
2019-04-23T00:12:59.196Z,32.70
2019-04-23T00:15:40.636Z,32.86
2019-04-23T00:18:22.730Z,32.61
2019-04-23T00:20:57.701Z,32.93
2019-04-23T00:23:35.040Z,32.89
2019-04-23T00:26:17.755Z,33.43
2019-04-23T00:28:42.235Z,33.21
2019-04-23T00:31:18.447Z,33.72
2019-04-23T00:33:49.597Z,33.54
2019-04-23T00:36:32.163Z,34.18
2019-04-23T00:39:17.301Z,34.37
2019-04-23T00:41:36.636Z,34.29
2019-04-23T00:44:21.251Z,34.69
2019-04-23T00:46:48.576Z,34.93
2019-04-23T00:49:29.030Z,35.04
2019-04-23T00:52:04.158Z,35.40
2019-04-23T00:54:35.622Z,35.54
2019-04-23T00:59:53.746Z,35.35
2019-04-23T01:02:26.339Z,35.57
2019-04-23T01:04:58.401Z,35.93
2019-04-23T01:07:33.562Z,36.02
2019-04-23T01:10:20.551Z,36.49
2019-04-23T01:15:37.169Z,35.87
2019-04-23T01:18:10.977Z,36.23
2019-04-23T01:20:55.156Z,36.65
2019-04-23T01:23:11.585Z,36.64
2019-04-23T01:25:58.147Z,36.83
2019-04-23T01:28:50.285Z,37.84
2019-04-23T01:31:23.290Z,37.29
2019-04-23T01:33:55.542Z,37.15
2019-04-23T01:36:33.045Z,37.34
2019-04-23T01:39:11.681Z,37.42
2019-04-23T01:41:47.832Z,37.61
2019-04-23T01:44:27.827Z,37.79
2019-04-23T01:46:54.226Z,38.36
2019-04-23T01:49:37.591Z,37.95
2019-04-23T01:52:08.317Z,38.17
2019-04-23T01:54:40.698Z,38.04
2019-04-23T01:57:18.051Z,38.11
2019-04-23T01:59:56.604Z,38.14
2019-04-23T02:02:26.457Z,38.66
2019-04-23T02:05:14.133Z,38.41
2019-04-23T02:07:44.115Z,39.78
2019-04-23T02:10:21.653Z,39.26
2019-04-23T02:12:56.824Z,39.17
2019-04-23T02:15:23.168Z,39.54
2019-04-23T02:18:06.609Z,40.07
2019-04-23T02:20:39.833Z,39.56
2019-04-23T02:23:21.603Z,39.79
2019-04-23T02:25:50.825Z,39.79
2019-04-23T02:28:28.660Z,40.32
2019-04-23T02:31:43.725Z,40.64
2019-04-23T02:33:45.057Z,41.09
2019-04-23T02:41:34.645Z,40.62
2019-04-23T02:44:11.662Z,40.91
2019-04-23T02:46:40.914Z,40.92
2019-04-23T02:51:53.694Z,41.29
2019-04-23T02:54:38.177Z,41.13
2019-04-23T02:56:59.121Z,41.14
2019-04-23T03:02:36.730Z,40.42
2019-04-23T03:04:57.069Z,41.31
2019-04-23T03:07:41.046Z,41.67
2019-04-23T03:10:10.144Z,42.08
2019-04-23T03:12:48.977Z,42.58
2019-04-23T03:15:28.332Z,41.91
2019-04-23T03:24:11.302Z,42.68
2019-04-23T03:27:03.587Z,41.78
2019-04-23T03:29:21.844Z,42.28
2019-04-23T03:39:52.433Z,42.11
2019-04-23T03:44:53.380Z,42.70
2019-04-23T03:47:24.939Z,43.56
2019-04-23T03:50:05.346Z,43.11
2019-04-23T03:52:35.478Z,43.16
2019-04-23T03:55:32.750Z,43.66
2019-04-23T04:00:31.108Z,44.11
2019-04-23T04:03:01.263Z,43.34
2019-04-23T04:05:36.004Z,43.90
2019-04-23T04:08:13.266Z,43.88
2019-04-23T04:13:22.802Z,43.97
2019-04-23T04:15:55.402Z,44.37
2019-04-23T04:18:37.891Z,44.66
2019-04-23T04:23:45.363Z,44.84
2019-04-23T04:26:13.848Z,45.39
2019-04-23T04:28:54.873Z,44.98
2019-04-23T04:31:34.733Z,44.25
2019-04-23T04:36:45.030Z,45.37
2019-04-23T04:38:58.995Z,45.30
2019-04-23T04:41:55.565Z,45.39
2019-04-23T04:46:54.914Z,45.96
2019-04-23T04:49:34.251Z,46.14
2019-04-23T04:54:30.842Z,45.73
2019-04-23T04:57:20.511Z,45.79
2019-04-23T05:02:53.115Z,47.15
2019-04-23T05:10:16.586Z,47.37
2019-04-23T05:15:18.835Z,47.00
2019-04-23T05:18:19.601Z,47.28
2019-04-23T05:20:56.410Z,46.80
2019-04-23T05:26:02.868Z,47.09
2019-04-23T05:28:38.772Z,46.82
2019-04-23T05:31:05.797Z,47.09
2019-04-23T05:33:47.860Z,46.93
2019-04-23T05:36:33.912Z,47.23
2019-04-23T05:39:00.877Z,47.72
2019-04-23T05:41:42.096Z,47.05
2019-04-23T05:44:12.121Z,47.00
2019-04-23T05:46:40.218Z,47.44
2019-04-23T05:49:11.010Z,47.51
2019-04-23T05:52:17.811Z,47.56
2019-04-23T05:54:30.046Z,47.60
2019-04-23T05:56:55.138Z,47.85
2019-04-23T05:59:46.861Z,47.57
2019-04-23T06:02:26.198Z,47.36
2019-04-23T06:04:42.266Z,48.20
2019-04-23T06:07:28.995Z,46.98
2019-04-23T06:10:02.929Z,47.92
2019-04-23T06:12:34.832Z,47.24
2019-04-23T06:18:02.068Z,46.58
2019-04-23T06:20:28.781Z,46.80
2019-04-23T06:22:56.292Z,47.04
2019-04-23T06:28:09.754Z,46.84
2019-04-23T06:30:53.030Z,47.39
2019-04-23T06:33:23.935Z,46.92
2019-04-23T06:35:50.485Z,46.82
2019-04-23T06:38:40.790Z,46.31
2019-04-23T06:41:13.195Z,46.31
2019-04-23T06:43:56.428Z,46.21
2019-04-23T06:46:28.256Z,46.58
2019-04-23T06:49:02.044Z,46.66
2019-04-23T06:51:47.541Z,46.71
2019-04-23T06:54:12.286Z,46.23
2019-04-23T06:56:52.981Z,46.35
2019-04-23T07:04:34.563Z,45.53
2019-04-23T07:09:41.846Z,45.75
2019-04-23T07:12:25.819Z,46.10
2019-04-23T07:14:59.610Z,45.34
2019-04-23T07:17:24.867Z,46.00
2019-04-23T07:20:04.893Z,45.24
2019-04-23T07:22:41.321Z,44.49
2019-04-23T07:25:17.537Z,45.27
2019-04-23T07:27:51.130Z,45.03
2019-04-23T07:30:29.726Z,45.79
2019-04-23T07:33:05.614Z,45.83
2019-04-23T07:35:47.918Z,45.00
2019-04-23T07:38:48.136Z,44.41
2019-04-23T07:41:37.822Z,45.39
2019-04-23T07:44:24.866Z,45.29
2019-04-23T07:47:19.435Z,45.29
2019-04-23T07:49:50.518Z,44.61
2019-04-23T07:54:54.379Z,43.67
2019-04-23T07:57:26.858Z,43.61
2019-04-23T08:00:15.866Z,43.49
2019-04-23T08:02:34.567Z,44.32
2019-04-23T08:05:22.464Z,44.42
2019-04-23T08:07:53.019Z,43.93
2019-04-23T08:10:34.347Z,44.32
2019-04-23T08:12:58.492Z,44.74
2019-04-23T08:15:34.692Z,44.67
2019-04-23T08:18:16.107Z,44.43
2019-04-23T08:20:49.043Z,44.06
2019-04-23T08:23:34.880Z,43.20
2019-04-23T08:26:26.727Z,43.87
2019-04-23T08:29:12.292Z,44.12
2019-04-23T08:31:32.061Z,43.88
2019-04-23T08:34:19.814Z,44.11
2019-04-23T08:36:44.383Z,44.41
2019-04-23T08:39:32.324Z,42.62
2019-04-23T08:44:39.534Z,43.50
2019-04-23T08:47:15.828Z,42.03
2019-04-23T08:49:40.403Z,42.03
2019-04-23T08:54:58.055Z,44.03
2019-04-23T08:59:59.277Z,43.52
2019-04-23T09:02:55.133Z,42.39
2019-04-23T09:05:14.742Z,43.01
2019-04-23T09:07:56.704Z,43.54
2019-04-23T09:10:29.977Z,43.82
2019-04-23T09:13:10.802Z,43.25
2019-04-23T09:15:42.414Z,43.25
2019-04-23T09:18:13.073Z,43.48
2019-04-23T09:20:37.181Z,42.08
2019-04-23T09:23:18.566Z,42.70
2019-04-23T09:25:55.942Z,42.68
2019-04-23T09:31:17.312Z,42.87
2019-04-23T09:33:52.141Z,43.10
2019-04-23T09:36:27.852Z,42.76
2019-04-23T09:41:52.605Z,40.69
2019-04-23T09:44:56.616Z,41.08
2019-04-23T09:47:26.347Z,42.07
2019-04-23T09:50:08.701Z,42.17
2019-04-23T09:52:46.124Z,40.11
2019-04-23T09:55:22.121Z,41.70
2019-04-23T09:57:55.571Z,42.23
2019-04-23T10:00:34.612Z,42.64
2019-04-23T10:02:47.341Z,41.85
2019-04-23T10:05:22.076Z,41.28
2019-04-23T10:07:56.276Z,41.71
2019-04-23T10:10:20.579Z,41.39
2019-04-23T10:12:55.636Z,40.02
2019-04-23T10:15:34.968Z,39.42
2019-04-23T10:18:04.728Z,40.21
2019-04-23T10:20:38.634Z,39.71
2019-04-23T10:23:12.578Z,40.60
2019-04-23T10:25:47.868Z,41.10
2019-04-23T10:28:29.643Z,40.14
2019-04-23T10:31:04.773Z,39.73
2019-04-23T10:33:39.864Z,40.23
2019-04-23T10:36:17.887Z,40.11
2019-04-23T10:38:59.501Z,39.93
2019-04-23T10:41:25.788Z,39.81
2019-04-23T10:44:04.971Z,40.62
2019-04-23T10:47:12.157Z,39.76
2019-04-23T10:50:13.953Z,39.11
2019-04-23T10:52:30.495Z,39.74
2019-04-23T10:55:28.191Z,39.83
2019-04-23T11:00:59.570Z,39.63
2019-04-23T11:06:30.793Z,38.64
2019-04-23T11:09:16.084Z,38.34
2019-04-23T11:11:48.312Z,38.20
2019-04-23T11:14:23.151Z,38.80
2019-04-23T11:16:56.566Z,39.25
2019-04-23T11:19:39.928Z,39.13
2019-04-23T11:22:24.912Z,38.54
2019-04-23T11:24:42.097Z,39.20
2019-04-23T11:27:14.748Z,39.68
2019-04-23T11:29:50.504Z,39.63
2019-04-23T11:35:15.798Z,38.79
2019-04-23T11:37:54.674Z,38.67
2019-04-23T11:40:15.564Z,39.63
2019-04-23T11:42:52.901Z,39.12
2019-04-23T11:51:05.753Z,38.42
2019-04-23T11:55:49.411Z,38.53
2019-04-23T12:03:56.483Z,36.38
2019-04-23T12:06:33.247Z,36.35
2019-04-23T12:09:31.438Z,37.20
2019-04-23T12:17:20.314Z,36.95
2019-04-23T12:27:31.698Z,35.47
2019-04-23T12:35:17.751Z,34.68
2019-04-23T12:38:15.486Z,35.39
2019-04-23T12:40:43.189Z,36.67
2019-04-23T12:45:47.001Z,34.15
2019-04-23T12:48:42.109Z,33.66
2019-04-23T12:50:58.340Z,33.53
2019-04-23T12:53:45.618Z,33.17
2019-04-23T12:56:21.994Z,33.69
2019-04-23T12:58:45.255Z,34.53
2019-04-23T13:01:36.007Z,35.04
2019-04-23T13:04:00.139Z,33.74
2019-04-23T13:06:39.282Z,33.94
2019-04-23T13:09:21.797Z,33.48
2019-04-23T13:11:49.642Z,34.64
2019-04-23T13:14:25.204Z,33.48
2019-04-23T13:17:12.610Z,32.62
2019-04-23T13:24:48.759Z,33.85
2019-04-23T13:27:50.235Z,34.43
2019-04-23T13:32:52.212Z,36.11
2019-04-23T13:35:38.589Z,34.76
2019-04-23T13:40:59.677Z,34.63
2019-04-23T13:43:28.235Z,32.97
2019-04-23T13:48:18.360Z,32.02
2019-04-23T13:51:00.267Z,32.89
2019-04-23T13:53:42.683Z,32.75
2019-04-23T13:56:11.304Z,33.78
2019-04-23T13:58:44.406Z,33.01
2019-04-23T14:04:16.205Z,32.14
2019-04-23T14:06:36.182Z,32.98
2019-04-23T14:11:40.462Z,32.33
2019-04-23T14:14:25.249Z,32.70
2019-04-23T14:17:18.706Z,32.85
2019-04-23T14:19:23.314Z,33.79
2019-04-23T14:22:29.926Z,33.63
2019-04-23T14:27:24.472Z,33.84
2019-04-23T14:29:55.934Z,34.16
2019-04-23T14:32:30.868Z,33.60
2019-04-23T14:35:10.800Z,33.61
2019-04-23T14:37:57.800Z,34.04
2019-04-23T14:40:29.799Z,33.56
2019-04-23T14:43:04.284Z,33.49
2019-04-23T14:45:44.588Z,33.95
2019-04-23T14:48:08.946Z,34.61
2019-04-23T14:50:41.265Z,34.82
2019-04-23T14:53:18.352Z,34.75
2019-04-23T15:03:55.708Z,34.54
2019-04-23T15:06:31.569Z,34.46
2019-04-23T15:09:10.816Z,33.44
2019-04-23T15:11:40.935Z,32.51
2019-04-23T15:14:11.891Z,33.20
2019-04-23T15:16:46.058Z,33.08
2019-04-23T15:29:33.722Z,34.40
2019-04-23T15:32:31.630Z,34.69
2019-04-23T15:35:05.238Z,34.99
2019-04-23T15:38:14.198Z,35.01
2019-04-23T15:40:11.147Z,34.14
2019-04-23T15:42:51.393Z,34.24
2019-04-23T15:45:15.037Z,33.70
2019-04-23T15:47:56.510Z,33.96
2019-04-23T15:50:43.523Z,33.87
2019-04-23T15:53:11.266Z,33.59
2019-04-23T15:55:44.223Z,34.18
2019-04-23T15:58:30.005Z,34.02
2019-04-23T16:01:21.157Z,34.39
2019-04-23T16:03:24.459Z,34.54
2019-04-23T16:05:59.252Z,34.43
2019-04-23T16:14:22.745Z,34.98
2019-04-23T16:16:55.100Z,33.98
2019-04-23T16:19:43.969Z,34.39
2019-04-23T16:22:03.707Z,34.25
2019-04-23T16:24:43.270Z,34.37
2019-04-23T16:27:11.027Z,35.45
2019-04-23T16:30:07.069Z,35.27
2019-04-23T16:32:52.356Z,34.68
2019-04-23T16:38:10.556Z,34.96
2019-04-23T16:40:37.501Z,34.37
2019-04-23T16:43:08.699Z,35.83
2019-04-23T16:45:49.338Z,34.78
2019-04-23T16:48:35.288Z,34.77
2019-04-23T16:53:25.166Z,34.37
2019-04-23T16:56:13.407Z,34.46
2019-04-23T16:58:42.528Z,35.70
2019-04-23T17:04:09.862Z,34.49
2019-04-23T17:06:26.788Z,34.66
2019-04-23T17:08:57.763Z,34.59
2019-04-23T17:11:34.369Z,34.81
2019-04-23T17:14:13.465Z,36.70
2019-04-23T17:19:22.409Z,36.11
2019-04-23T17:22:00.013Z,36.99
2019-04-23T17:27:18.114Z,36.95
2019-04-23T17:29:44.158Z,37.23
2019-04-23T17:32:23.659Z,36.47
2019-04-23T17:35:11.654Z,36.18
2019-04-23T17:37:51.953Z,37.04
2019-04-23T17:43:01.740Z,37.16
2019-04-23T17:48:17.257Z,38.69
2019-04-23T17:50:56.721Z,39.31
2019-04-23T17:53:31.908Z,39.53
2019-04-23T17:56:20.172Z,40.14
2019-04-23T18:09:09.830Z,41.77
2019-04-23T18:11:52.620Z,41.63
2019-04-23T18:14:07.156Z,42.21
2019-04-23T18:19:16.856Z,42.53
2019-04-23T18:25:03.890Z,44.96
2019-04-23T18:27:40.608Z,45.90
2019-04-23T18:46:02.401Z,49.76
2019-04-23T18:48:44.203Z,49.97
2019-04-23T18:51:12.423Z,50.52
2019-04-23T18:59:00.905Z,51.68
2019-04-23T19:01:45.129Z,52.39
2019-04-23T19:04:19.776Z,52.47
2019-04-23T19:06:37.719Z,53.03
2019-04-23T19:12:19.736Z,54.58
2019-04-23T19:14:53.915Z,55.53
2019-04-23T19:17:48.273Z,55.53
2019-04-23T19:19:58.206Z,56.48
2019-04-23T19:22:28.089Z,56.99
2019-04-23T19:25:02.052Z,57.27
2019-04-23T19:27:40.469Z,56.81
2019-04-23T19:30:28.083Z,57.09
2019-04-23T19:32:54.295Z,57.54
2019-04-23T19:35:53.790Z,58.17
2019-04-23T19:43:19.926Z,56.87
2019-04-23T19:46:03.945Z,55.35
2019-04-23T19:48:42.478Z,56.99
2019-04-23T19:53:54.987Z,57.00
2019-04-23T19:56:20.200Z,56.28
2019-04-23T19:58:51.665Z,56.84
2019-04-23T20:01:29.667Z,56.86
2019-04-23T20:07:00.125Z,57.64
2019-04-23T20:14:26.136Z,57.89
2019-04-23T20:17:17.646Z,58.45
2019-04-23T20:19:37.379Z,58.67
2019-04-23T20:24:57.639Z,58.42
2019-04-23T20:27:23.474Z,58.63
2019-04-23T20:30:32.473Z,57.28
2019-04-23T20:35:30.763Z,58.06
2019-04-23T20:40:49.173Z,57.92
2019-04-23T20:43:32.438Z,58.18
2019-04-23T20:45:54.596Z,57.88
2019-04-23T20:48:27.344Z,58.54
2019-04-23T20:50:56.264Z,59.00
2019-04-23T20:53:42.968Z,59.97
2019-04-23T20:56:17.636Z,60.13
2019-04-23T20:58:55.627Z,60.73
2019-04-23T21:01:43.465Z,61.50
2019-04-23T21:04:35.229Z,61.98
2019-04-23T21:06:48.733Z,62.60
2019-04-23T21:09:33.419Z,61.55
2019-04-23T21:12:07.891Z,62.57
2019-04-23T21:14:48.754Z,62.75
2019-04-23T21:17:04.138Z,63.18
2019-04-23T21:19:52.588Z,63.43
2019-04-23T21:22:31.052Z,63.75
2019-04-23T21:24:51.482Z,63.58
2019-04-23T21:30:03.541Z,63.44
2019-04-23T21:32:51.457Z,63.57
2019-04-23T21:35:42.559Z,63.69
2019-04-23T21:38:00.420Z,63.55
2019-04-23T21:40:56.871Z,63.69
2019-04-23T21:43:10.654Z,63.25
2019-04-23T21:46:06.007Z,63.20
2019-04-23T21:48:33.889Z,63.46
2019-04-23T21:50:58.041Z,63.50
2019-04-23T21:53:34.625Z,63.78
2019-04-23T21:56:08.619Z,63.95
2019-04-23T22:01:27.820Z,64.08
2019-04-23T22:04:08.750Z,64.25
2019-04-23T22:06:37.193Z,62.97
2019-04-23T22:09:15.963Z,62.79
2019-04-23T22:17:01.581Z,63.01
2019-04-23T22:19:19.918Z,62.96
2019-04-23T22:21:59.145Z,63.21
2019-04-23T22:24:39.842Z,63.59
2019-04-23T22:27:10.161Z,62.91
2019-04-23T22:29:43.565Z,61.17
2019-04-23T22:32:20.111Z,57.45
2019-04-23T22:35:06.393Z,55.29
2019-04-23T22:37:32.409Z,55.40
2019-04-23T22:40:04.658Z,55.82
2019-04-23T22:43:01.250Z,56.04
2019-04-23T22:47:58.468Z,52.63
2019-04-23T22:50:29.552Z,52.06
2019-04-23T22:55:51.633Z,50.88
2019-04-23T22:58:09.676Z,51.42
2019-04-23T23:01:10.670Z,50.86
2019-04-23T23:03:33.735Z,50.60
2019-04-23T23:06:24.801Z,50.58
2019-04-23T23:09:02.589Z,50.57
2019-04-23T23:11:14.974Z,50.77
2019-04-23T23:14:09.657Z,50.81
2019-04-23T23:16:30.338Z,50.68
2019-04-23T23:19:14.797Z,50.85
2019-04-23T23:21:56.650Z,51.13
2019-04-23T23:29:27.702Z,52.52
2019-04-23T23:32:09.622Z,51.97
2019-04-23T23:34:57.568Z,52.45
2019-04-23T23:37:12.040Z,53.51
2019-04-23T23:40:00.022Z,53.82
2019-04-23T23:42:22.030Z,54.90
2019-04-23T23:45:15.480Z,56.10
2019-04-23T23:47:38.119Z,56.82
2019-04-23T23:50:19.596Z,57.68
2019-04-23T23:55:19.575Z,58.61
2019-04-23T23:58:07.340Z,59.08
